createdAt,value
2022-12-08T00:01:07.154Z,-0.40
2022-12-08T00:03:35.052Z,-0.30
2022-12-08T00:06:22.281Z,-0.30
2022-12-08T00:09:08.878Z,-0.30
2022-12-08T00:11:36.545Z,-0.30
2022-12-08T00:14:03.999Z,-0.30
2022-12-08T00:16:30.997Z,-0.30
2022-12-08T00:18:58.150Z,-0.20
2022-12-08T00:21:25.017Z,-0.20
2022-12-08T00:23:55.445Z,-0.20
2022-12-08T00:26:22.887Z,-0.30
2022-12-08T00:28:50.312Z,-0.30
2022-12-08T00:31:17.546Z,-0.30
2022-12-08T00:33:45.052Z,-0.30
2022-12-08T00:36:14.282Z,-0.40
2022-12-08T00:38:42.377Z,-0.40
2022-12-08T00:41:13.163Z,-0.40
2022-12-08T00:43:40.745Z,-0.40
2022-12-08T00:46:07.948Z,-0.40
2022-12-08T00:48:35.432Z,-0.40
2022-12-08T00:51:02.312Z,-0.40
2022-12-08T00:53:30.983Z,-0.50
2022-12-08T00:55:57.839Z,-0.50
2022-12-08T00:58:24.959Z,-0.60
2022-12-08T01:00:52.056Z,-0.60
2022-12-08T01:03:19.689Z,-0.60
2022-12-08T01:05:46.593Z,-0.70
2022-12-08T01:08:14.175Z,-0.70
2022-12-08T01:10:41.067Z,-0.60
2022-12-08T01:13:08.495Z,-0.60
2022-12-08T01:15:35.365Z,-0.60
2022-12-08T01:18:02.585Z,-0.50
2022-12-08T01:20:29.495Z,-0.50
2022-12-08T01:22:56.924Z,-0.40
2022-12-08T01:25:23.821Z,-0.40
2022-12-08T01:27:52.627Z,-0.40
2022-12-08T01:30:20.450Z,-0.40
2022-12-08T01:32:47.972Z,-0.40
2022-12-08T01:35:14.940Z,-0.30
2022-12-08T01:37:42.109Z,-0.40
2022-12-08T01:40:10.148Z,-0.40
2022-12-08T01:42:38.402Z,-0.50
2022-12-08T01:45:14.177Z,-0.50
2022-12-08T01:47:44.265Z,-0.50
2022-12-08T01:50:13.730Z,-0.50
2022-12-08T01:52:47.685Z,-0.50
2022-12-08T01:55:30.201Z,-0.40
2022-12-08T01:58:05.115Z,-0.30
2022-12-08T02:00:31.987Z,-0.30
2022-12-08T02:03:02.447Z,-0.20
2022-12-08T02:05:33.093Z,-0.20
2022-12-08T02:08:04.478Z,-0.20
2022-12-08T02:10:34.662Z,-0.20
2022-12-08T02:13:04.843Z,-0.10
2022-12-08T02:15:49.084Z,-0.10
2022-12-08T02:18:16.217Z,-0.10
2022-12-08T02:21:12.948Z,-0.10
2022-12-08T02:23:51.406Z,-0.10
2022-12-08T02:26:36.593Z,-0.10
2022-12-08T02:29:13.634Z,-0.10
2022-12-08T02:32:18.098Z,-0.20
2022-12-08T02:34:59.516Z,-0.30
2022-12-08T02:37:39.251Z,-1.70
2022-12-08T02:40:30.581Z,-0.40
2022-12-08T02:43:07.410Z,-0.50
2022-12-08T02:45:40.958Z,-0.50
2022-12-08T02:48:09.796Z,-0.40
2022-12-08T02:50:37.062Z,-0.40
2022-12-08T02:55:34.013Z,-0.30
2022-12-08T02:58:19.382Z,-0.30
2022-12-08T03:01:04.317Z,-0.20
2022-12-08T03:03:37.168Z,-0.20
2022-12-08T03:06:16.976Z,-0.20
2022-12-08T03:09:04.084Z,-0.10
2022-12-08T03:11:43.253Z,-0.10
2022-12-08T03:14:13.394Z,-0.10
2022-12-08T03:16:44.634Z,-0.10
2022-12-08T03:19:20.946Z,-0.10
2022-12-08T03:21:51.314Z,-0.10
2022-12-08T03:24:19.869Z,-0.10
2022-12-08T03:26:56.963Z,-0.10
2022-12-08T03:29:24.544Z,-0.10
2022-12-08T03:32:01.470Z,0.00
2022-12-08T03:34:29.917Z,0.00
2022-12-08T03:36:57.307Z,0.00
2022-12-08T03:39:24.212Z,0.00
2022-12-08T03:41:51.706Z,0.00
2022-12-08T03:44:18.574Z,0.00
2022-12-08T03:46:46.151Z,-0.10
2022-12-08T03:49:12.992Z,0.00
2022-12-08T03:51:40.130Z,0.00
2022-12-08T03:54:06.999Z,-0.10
2022-12-08T03:56:37.329Z,-0.10
2022-12-08T03:59:06.125Z,0.00
2022-12-08T04:01:34.014Z,-0.10
2022-12-08T04:04:01.146Z,-0.10
2022-12-08T04:06:28.955Z,0.00
2022-12-08T04:08:55.977Z,-0.10
2022-12-08T04:11:23.662Z,0.00
2022-12-08T04:13:50.520Z,-0.10
2022-12-08T04:16:20.769Z,-0.10
2022-12-08T04:18:47.786Z,-0.10
2022-12-08T04:21:15.428Z,-0.10
2022-12-08T04:23:42.797Z,-0.10
2022-12-08T04:26:10.305Z,-0.10
2022-12-08T04:28:37.615Z,-0.10
2022-12-08T04:31:05.884Z,-0.10
2022-12-08T04:33:32.889Z,-0.20
2022-12-08T04:36:00.289Z,-0.20
2022-12-08T04:38:28.449Z,-0.20
2022-12-08T04:40:55.867Z,-0.30
2022-12-08T04:43:22.758Z,-0.30
2022-12-08T04:45:50.321Z,-0.30
2022-12-08T04:48:17.358Z,2.90
2022-12-08T04:50:45.421Z,-0.40
2022-12-08T04:53:13.526Z,-0.30
2022-12-08T04:55:45.461Z,-0.40
2022-12-08T04:58:14.740Z,-0.30
2022-12-08T05:00:42.584Z,-0.30
2022-12-08T05:03:09.894Z,-0.30
2022-12-08T05:05:37.400Z,-0.30
2022-12-08T05:08:05.527Z,-0.30
2022-12-08T05:10:33.293Z,-0.20
2022-12-08T05:13:00.856Z,-0.20
2022-12-08T05:15:28.433Z,-0.20
2022-12-08T05:17:55.404Z,-0.20
2022-12-08T05:20:23.154Z,-0.20
2022-12-08T05:22:50.385Z,-0.20
2022-12-08T05:25:17.875Z,-0.30
2022-12-08T05:27:44.802Z,-0.30
2022-12-08T05:30:12.439Z,-0.20
2022-12-08T05:32:39.320Z,-0.20
2022-12-08T05:35:07.011Z,-0.30
2022-12-08T05:37:34.059Z,-0.30
2022-12-08T05:40:01.829Z,-0.30
2022-12-08T05:42:29.042Z,-0.30
2022-12-08T05:44:56.220Z,-0.30
2022-12-08T05:47:23.200Z,-0.40
2022-12-08T05:49:50.626Z,-0.50
2022-12-08T05:52:17.729Z,-0.60
2022-12-08T05:54:44.858Z,-0.80
2022-12-08T05:57:11.894Z,-1.00
2022-12-08T05:59:39.812Z,-1.10
2022-12-08T06:02:08.790Z,-1.20
2022-12-08T06:04:36.659Z,-1.30
2022-12-08T06:07:03.682Z,-1.40
2022-12-08T06:09:30.888Z,-1.40
2022-12-08T06:11:57.825Z,-1.50
2022-12-08T06:14:25.082Z,-1.60
2022-12-08T06:16:52.193Z,-1.60
2022-12-08T06:19:19.821Z,-1.60
2022-12-08T06:21:46.739Z,-1.70
2022-12-08T06:24:14.962Z,-1.70
2022-12-08T06:26:42.638Z,-1.70
2022-12-08T06:29:10.153Z,-1.70
2022-12-08T06:31:37.120Z,-1.80
2022-12-08T06:34:05.827Z,-1.80
2022-12-08T06:36:32.848Z,-1.70
2022-12-08T06:39:00.341Z,-1.80
2022-12-08T06:41:27.228Z,-1.70
2022-12-08T06:43:57.445Z,-1.70
2022-12-08T06:46:24.741Z,-1.70
2022-12-08T06:48:52.324Z,-1.70
2022-12-08T06:51:22.890Z,-1.70
2022-12-08T06:53:50.357Z,-1.60
2022-12-08T06:56:20.243Z,-1.60
2022-12-08T06:58:52.316Z,-1.50
2022-12-08T07:01:19.765Z,-1.50
2022-12-08T07:03:47.891Z,-1.40
2022-12-08T07:06:24.967Z,-1.30
2022-12-08T07:08:52.541Z,-1.30
2022-12-08T07:11:21.884Z,-1.20
2022-12-08T07:13:50.525Z,-1.10
2022-12-08T07:16:17.753Z,-1.00
2022-12-08T07:18:46.094Z,-1.00
2022-12-08T07:21:15.047Z,-0.90
2022-12-08T07:23:45.032Z,-0.80
2022-12-08T07:26:13.026Z,-0.70
2022-12-08T07:28:41.790Z,-0.70
2022-12-08T07:31:17.365Z,-0.60
2022-12-08T07:33:44.907Z,-0.50
2022-12-08T07:36:12.059Z,-0.30
2022-12-08T07:38:39.771Z,-0.20
2022-12-08T07:41:11.203Z,-0.10
2022-12-08T07:43:38.640Z,0.00
2022-12-08T07:46:05.743Z,0.20
2022-12-08T07:48:32.971Z,0.20
2022-12-08T07:51:04.218Z,0.40
2022-12-08T07:53:33.034Z,0.40
2022-12-08T07:56:00.097Z,0.50
2022-12-08T07:58:27.867Z,0.60
2022-12-08T08:00:55.021Z,0.60
2022-12-08T08:03:22.677Z,0.70
2022-12-08T08:05:50.129Z,0.70
2022-12-08T08:08:18.250Z,0.70
2022-12-08T08:10:46.302Z,0.80
2022-12-08T08:13:14.112Z,0.90
2022-12-08T08:15:41.308Z,0.90
2022-12-08T08:18:08.931Z,1.00
2022-12-08T08:20:35.926Z,1.00
2022-12-08T08:23:03.459Z,1.10
2022-12-08T08:25:30.309Z,1.00
2022-12-08T08:27:57.792Z,1.00
2022-12-08T08:30:24.784Z,0.90
2022-12-08T08:32:53.111Z,0.90
2022-12-08T08:35:20.455Z,0.90
2022-12-08T08:37:49.455Z,0.80
2022-12-08T08:40:17.994Z,0.90
2022-12-08T08:42:45.672Z,1.00
2022-12-08T08:45:12.665Z,1.00
2022-12-08T08:47:42.878Z,1.20
2022-12-08T08:50:10.204Z,3.90
2022-12-08T08:52:37.681Z,1.40
2022-12-08T08:55:04.951Z,1.60
2022-12-08T08:57:32.102Z,1.90
2022-12-08T08:59:59.028Z,2.00
2022-12-08T09:02:26.179Z,2.10
2022-12-08T09:04:53.602Z,2.10
2022-12-08T09:07:20.836Z,2.10
2022-12-08T09:09:47.811Z,2.00
2022-12-08T09:12:15.090Z,2.00
2022-12-08T09:14:42.018Z,2.00
2022-12-08T09:17:09.452Z,2.00
2022-12-08T09:19:36.420Z,2.00
2022-12-08T09:22:04.475Z,2.10
2022-12-08T09:24:31.512Z,2.20
2022-12-08T09:26:58.969Z,2.40
2022-12-08T09:29:28.748Z,2.50
2022-12-08T09:31:59.916Z,2.70
2022-12-08T09:34:26.919Z,2.80
2022-12-08T09:36:54.079Z,3.00
2022-12-08T09:39:20.970Z,3.20
2022-12-08T09:41:57.581Z,3.40
2022-12-08T09:44:38.645Z,3.50
2022-12-08T09:47:30.639Z,3.60
2022-12-08T09:50:05.421Z,3.60
2022-12-08T09:52:56.834Z,3.50
2022-12-08T09:55:50.913Z,3.40
2022-12-08T09:58:27.535Z,3.30
2022-12-08T10:00:54.477Z,3.20
2022-12-08T10:03:27.047Z,3.30
2022-12-08T10:06:13.398Z,3.30
2022-12-08T10:08:48.125Z,3.30
2022-12-08T10:11:24.844Z,3.30
2022-12-08T10:14:12.389Z,3.20
2022-12-08T10:16:41.910Z,3.10
2022-12-08T10:19:18.707Z,3.10
2022-12-08T10:21:45.738Z,3.00
2022-12-08T10:24:41.368Z,3.00
2022-12-08T10:27:12.612Z,3.00
2022-12-08T10:29:40.935Z,3.00
2022-12-08T10:32:19.068Z,2.90
2022-12-08T10:35:09.236Z,2.90
2022-12-08T10:37:36.387Z,2.90
2022-12-08T10:40:14.370Z,2.90
2022-12-08T10:42:46.126Z,2.80
2022-12-08T10:45:45.520Z,2.80
2022-12-08T10:48:17.634Z,2.80
2022-12-08T10:50:56.456Z,2.90
2022-12-08T10:53:31.905Z,3.00
2022-12-08T10:56:02.024Z,3.00
2022-12-08T10:58:35.812Z,3.10
2022-12-08T11:01:06.236Z,3.20
2022-12-08T11:03:47.799Z,3.20
2022-12-08T11:06:30.831Z,3.30
2022-12-08T11:09:19.067Z,3.30
2022-12-08T11:11:48.389Z,3.30
2022-12-08T11:14:28.256Z,3.30
2022-12-08T11:17:08.121Z,3.30
2022-12-08T11:19:39.158Z,3.40
2022-12-08T11:22:25.122Z,3.40
2022-12-08T11:25:12.505Z,3.50
2022-12-08T11:27:45.650Z,3.60
2022-12-08T11:30:25.727Z,3.60
2022-12-08T11:33:12.231Z,3.70
2022-12-08T11:35:42.589Z,3.70
2022-12-08T11:38:23.632Z,3.70
2022-12-08T11:40:55.351Z,3.70
2022-12-08T11:43:34.961Z,3.70
2022-12-08T11:46:09.735Z,3.70
2022-12-08T11:48:44.954Z,3.60
2022-12-08T11:51:30.911Z,3.50
2022-12-08T11:54:40.127Z,3.50
2022-12-08T11:57:13.293Z,3.40
2022-12-08T11:59:49.626Z,3.40
2022-12-08T12:02:30.031Z,3.30
2022-12-08T12:05:39.819Z,3.30
2022-12-08T12:08:29.031Z,3.20
2022-12-08T12:11:33.638Z,3.20
2022-12-08T12:14:59.841Z,3.30
2022-12-08T12:17:41.865Z,3.30
2022-12-08T12:20:24.912Z,3.30
2022-12-08T12:22:56.566Z,3.40
2022-12-08T12:25:26.176Z,3.30
2022-12-08T12:28:00.689Z,3.40
2022-12-08T12:30:32.252Z,3.40
2022-12-08T12:33:01.559Z,3.50
2022-12-08T12:35:41.347Z,3.60
2022-12-08T12:38:44.838Z,3.60
2022-12-08T12:41:13.277Z,3.60
2022-12-08T12:44:00.854Z,3.60
2022-12-08T12:46:28.051Z,3.50
2022-12-08T12:49:33.937Z,3.50
2022-12-08T12:52:01.095Z,3.50
2022-12-08T12:54:29.574Z,3.40
2022-12-08T12:57:10.477Z,3.40
2022-12-08T12:59:55.126Z,3.30
2022-12-08T13:02:44.219Z,3.20
2022-12-08T13:05:34.859Z,3.10
2022-12-08T13:08:25.441Z,3.00
2022-12-08T13:11:08.964Z,3.00
2022-12-08T13:13:55.013Z,2.90
2022-12-08T13:16:26.104Z,2.90
2022-12-08T13:18:58.512Z,2.90
2022-12-08T13:21:33.812Z,2.90
2022-12-08T13:24:30.885Z,2.80
2022-12-08T13:27:04.346Z,2.80
2022-12-08T13:29:32.997Z,2.70
2022-12-08T13:32:39.031Z,2.70
2022-12-08T13:35:15.879Z,2.60
2022-12-08T13:37:54.893Z,2.60
2022-12-08T13:40:28.091Z,2.50
2022-12-08T13:43:03.248Z,2.40
2022-12-08T13:46:18.341Z,2.40
2022-12-08T13:49:10.053Z,2.40
2022-12-08T13:57:26.416Z,2.30
2022-12-08T13:59:54.183Z,2.30
2022-12-08T14:02:30.111Z,2.30
2022-12-08T14:07:46.608Z,2.30
2022-12-08T14:10:20.839Z,2.30
2022-12-08T14:12:54.391Z,2.20
2022-12-08T14:15:22.396Z,2.20
2022-12-08T14:17:52.813Z,2.20
2022-12-08T14:20:26.095Z,2.30
2022-12-08T14:22:54.032Z,2.20
2022-12-08T14:25:22.893Z,2.30
2022-12-08T14:27:50.377Z,2.20
2022-12-08T14:30:26.291Z,2.20
2022-12-08T14:32:56.160Z,2.20
2022-12-08T14:35:25.603Z,2.20
2022-12-08T14:38:14.249Z,2.10
2022-12-08T14:40:42.765Z,2.00
2022-12-08T14:43:09.583Z,1.90
2022-12-08T14:45:43.124Z,1.80
2022-12-08T14:48:28.154Z,1.80
2022-12-08T14:51:16.188Z,1.70
2022-12-08T14:53:53.610Z,1.70
2022-12-08T14:56:28.405Z,1.70
2022-12-08T14:59:06.226Z,1.70
2022-12-08T15:01:34.393Z,1.60
2022-12-08T15:04:22.649Z,1.50
2022-12-08T15:06:50.027Z,1.50
2022-12-08T15:09:29.285Z,1.40
2022-12-08T15:12:23.266Z,1.30
2022-12-08T15:14:59.811Z,1.30
2022-12-08T15:17:42.658Z,1.20
2022-12-08T15:20:38.558Z,1.10
2022-12-08T15:23:06.631Z,1.00
2022-12-08T15:25:33.628Z,1.00
2022-12-08T15:28:03.055Z,0.90
2022-12-08T15:30:30.349Z,0.90
2022-12-08T15:32:57.528Z,0.80
2022-12-08T15:35:24.414Z,0.80
2022-12-08T15:37:51.661Z,0.70
2022-12-08T15:40:21.132Z,0.70
2022-12-08T15:42:48.887Z,0.60
2022-12-08T15:45:17.101Z,0.50
2022-12-08T15:47:45.363Z,0.50
2022-12-08T15:50:21.703Z,0.50
2022-12-08T15:52:50.297Z,0.40
2022-12-08T15:55:20.018Z,0.30
2022-12-08T15:58:44.984Z,0.10
2022-12-08T16:00:54.374Z,0.10
2022-12-08T16:09:17.805Z,0.00
2022-12-08T16:12:07.267Z,0.00
2022-12-08T16:17:27.087Z,0.10
2022-12-08T16:19:55.263Z,0.10
2022-12-08T16:25:20.287Z,0.20
2022-12-08T16:30:37.212Z,0.20
2022-12-08T16:33:04.495Z,0.30
2022-12-08T16:35:32.254Z,0.30
2022-12-08T16:37:59.510Z,0.30
2022-12-08T16:40:26.874Z,0.30
2022-12-08T16:42:54.078Z,0.30
2022-12-08T16:45:29.371Z,0.30
2022-12-08T16:47:58.944Z,0.30
2022-12-08T16:50:34.846Z,0.40
2022-12-08T16:53:07.352Z,0.30
2022-12-08T16:55:35.419Z,0.40
2022-12-08T16:58:03.637Z,0.40
2022-12-08T17:00:41.934Z,0.40
2022-12-08T17:03:08.913Z,0.30
2022-12-08T17:05:39.156Z,0.30
2022-12-08T17:08:06.387Z,0.30
2022-12-08T17:10:38.468Z,0.30
2022-12-08T17:13:05.567Z,0.30
2022-12-08T17:15:32.797Z,0.30
2022-12-08T17:18:00.131Z,0.20
2022-12-08T17:20:28.563Z,0.20
2022-12-08T17:22:58.633Z,0.20
2022-12-08T17:25:26.893Z,0.20
2022-12-08T17:27:54.399Z,0.20
2022-12-08T17:30:22.152Z,0.20
2022-12-08T17:32:49.133Z,0.20
2022-12-08T17:35:16.531Z,0.20
2022-12-08T17:37:43.890Z,0.20
2022-12-08T17:40:11.682Z,0.20
2022-12-08T17:42:38.989Z,0.10
2022-12-08T17:45:07.752Z,0.10
2022-12-08T17:47:35.196Z,0.10
2022-12-08T17:50:02.984Z,0.00
2022-12-08T17:52:30.145Z,0.00
2022-12-08T17:54:57.273Z,0.00
2022-12-08T17:57:25.234Z,0.10
2022-12-08T17:59:52.538Z,0.10
2022-12-08T18:02:19.952Z,0.10
2022-12-08T18:04:47.808Z,0.10
2022-12-08T18:07:14.711Z,0.10
2022-12-08T18:09:42.106Z,0.10
2022-12-08T18:12:08.994Z,0.20
2022-12-08T18:14:36.202Z,0.10
2022-12-08T18:17:03.346Z,0.20
2022-12-08T18:19:31.115Z,0.20
2022-12-08T18:21:58.117Z,0.20
2022-12-08T18:24:25.345Z,0.20
2022-12-08T18:26:52.658Z,0.20
2022-12-08T18:29:21.725Z,0.20
2022-12-08T18:31:52.185Z,0.20
2022-12-08T18:34:19.820Z,0.20
2022-12-08T18:36:48.373Z,0.20
2022-12-08T18:39:23.633Z,0.20
2022-12-08T18:41:51.589Z,0.20
2022-12-08T18:44:19.103Z,0.20
2022-12-08T18:46:46.046Z,0.10
2022-12-08T18:49:16.059Z,0.10
2022-12-08T18:51:43.842Z,0.10
2022-12-08T18:54:12.909Z,0.00
2022-12-08T18:56:40.086Z,0.00
2022-12-08T18:59:11.102Z,0.00
2022-12-08T19:01:39.625Z,0.00
2022-12-08T19:06:56.907Z,-0.10
2022-12-08T19:09:26.686Z,0.00
2022-12-08T19:11:53.866Z,-0.10
2022-12-08T19:14:27.784Z,0.00
2022-12-08T19:16:57.860Z,0.00
2022-12-08T19:19:25.865Z,0.10
2022-12-08T19:21:54.182Z,0.10
2022-12-08T19:24:21.398Z,0.10
2022-12-08T19:26:48.374Z,0.10
2022-12-08T19:29:17.195Z,0.10
2022-12-08T19:31:44.411Z,0.10
2022-12-08T19:34:15.325Z,0.10
2022-12-08T19:36:43.109Z,0.10
2022-12-08T19:39:33.708Z,0.10
2022-12-08T19:42:19.303Z,0.10
2022-12-08T19:44:54.119Z,0.10
2022-12-08T19:47:25.555Z,0.10
2022-12-08T19:49:55.352Z,0.10
2022-12-08T19:52:23.327Z,0.00
2022-12-08T19:54:50.576Z,0.00
2022-12-08T19:57:17.562Z,0.00
2022-12-08T19:59:44.922Z,0.10
2022-12-08T20:02:12.615Z,0.10
2022-12-08T20:04:40.398Z,0.10
2022-12-08T20:07:07.745Z,0.10
2022-12-08T20:09:35.039Z,0.10
2022-12-08T20:12:01.953Z,0.10
2022-12-08T20:14:29.258Z,0.10
2022-12-08T20:16:56.520Z,0.10
2022-12-08T20:19:23.906Z,0.20
2022-12-08T20:21:53.673Z,0.20
2022-12-08T20:24:20.944Z,0.10
2022-12-08T20:26:47.935Z,0.10
2022-12-08T20:29:17.106Z,0.00
2022-12-08T20:31:44.515Z,-0.10
2022-12-08T20:34:16.988Z,-0.20
2022-12-08T20:36:44.599Z,-0.20
2022-12-08T20:39:14.140Z,-0.30
2022-12-08T20:41:42.049Z,-0.30
2022-12-08T20:44:10.978Z,-0.40
2022-12-08T20:46:38.288Z,-0.40
2022-12-08T20:49:06.064Z,-0.40
2022-12-08T20:51:34.918Z,-0.40
2022-12-08T20:54:04.793Z,-0.40
2022-12-08T20:56:32.776Z,-0.40
2022-12-08T20:59:01.308Z,-0.50
2022-12-08T21:01:28.948Z,-0.50
2022-12-08T21:03:56.987Z,-0.50
2022-12-08T21:06:27.128Z,-0.60
2022-12-08T21:08:54.526Z,-0.60
2022-12-08T21:11:21.941Z,-0.60
2022-12-08T21:13:50.628Z,-0.60
2022-12-08T21:16:17.729Z,-0.60
2022-12-08T21:18:45.484Z,-0.60
2022-12-08T21:21:14.373Z,-0.60
2022-12-08T21:23:43.190Z,-0.60
2022-12-08T21:26:15.666Z,-0.60
2022-12-08T21:28:43.597Z,-0.50
2022-12-08T21:31:13.110Z,-0.40
2022-12-08T21:33:40.892Z,-0.50
2022-12-08T21:36:16.521Z,-0.50
2022-12-08T21:38:44.615Z,-0.40
2022-12-08T21:41:14.508Z,-0.40
2022-12-08T21:43:42.818Z,-0.30
2022-12-08T21:46:17.307Z,-0.30
2022-12-08T21:48:44.681Z,-0.30
2022-12-08T21:51:11.931Z,-0.30
2022-12-08T21:53:39.298Z,-0.30
2022-12-08T21:56:09.822Z,-0.40
2022-12-08T21:58:39.798Z,-0.40
2022-12-08T22:01:08.403Z,-0.40
2022-12-08T22:03:36.324Z,-0.50
2022-12-08T22:06:08.185Z,-0.50
2022-12-08T22:08:36.443Z,-0.50
2022-12-08T22:11:03.844Z,-0.50
2022-12-08T22:13:33.946Z,-0.60
2022-12-08T22:16:02.875Z,-0.60
2022-12-08T22:18:30.788Z,-0.60
2022-12-08T22:20:58.147Z,-0.60
2022-12-08T22:23:25.740Z,-0.60
2022-12-08T22:26:00.498Z,-0.70
2022-12-08T22:28:30.412Z,-0.70
2022-12-08T22:30:57.449Z,-0.70
2022-12-08T22:33:24.833Z,-0.70
2022-12-08T22:36:03.415Z,-0.70
2022-12-08T22:38:34.310Z,-0.70
2022-12-08T22:41:05.001Z,-0.80
2022-12-08T22:43:33.612Z,-0.80
2022-12-08T22:46:00.750Z,-0.80
2022-12-08T22:48:28.787Z,-0.80
2022-12-08T22:50:59.970Z,-0.80
2022-12-08T22:53:27.362Z,-0.70
2022-12-08T22:55:54.622Z,-0.70
2022-12-08T22:58:22.285Z,-0.70
2022-12-08T23:00:49.771Z,-0.80
2022-12-08T23:03:17.578Z,-0.80
2022-12-08T23:05:44.637Z,-0.90
2022-12-08T23:08:15.983Z,-0.90
2022-12-08T23:10:43.805Z,-0.90
2022-12-08T23:13:12.417Z,-0.90
2022-12-08T23:15:40.524Z,-1.00
2022-12-08T23:18:08.578Z,-0.90
2022-12-08T23:20:35.719Z,-0.90
2022-12-08T23:23:03.290Z,-0.80
2022-12-08T23:25:30.358Z,-0.80
2022-12-08T23:27:57.509Z,-0.80
2022-12-08T23:30:25.553Z,-0.80
2022-12-08T23:32:56.552Z,-0.80
2022-12-08T23:35:23.697Z,-0.80
2022-12-08T23:37:51.287Z,-0.80
2022-12-08T23:40:18.260Z,-0.80
2022-12-08T23:42:45.538Z,-0.70
2022-12-08T23:45:12.990Z,-0.70
2022-12-08T23:47:40.580Z,-0.60
2022-12-08T23:50:08.675Z,-0.60
2022-12-08T23:52:36.337Z,-0.70
2022-12-08T23:55:05.127Z,-0.70
2022-12-08T23:57:32.768Z,-0.70
2022-12-08T23:59:59.760Z,-0.70
